createdAt,value
2022-12-01T00:00:20.702Z,16.80
2022-12-01T00:01:15.024Z,18.10
2022-12-01T00:01:49.988Z,19.40
2022-12-01T00:02:23.481Z,19.80
2022-12-01T00:02:57.061Z,18.20
2022-12-01T00:03:31.921Z,17.90
2022-12-01T00:04:05.649Z,17.30
2022-12-01T00:04:41.418Z,18.00
2022-12-01T00:05:14.855Z,19.40
2022-12-01T00:05:48.233Z,17.70
2022-12-01T00:06:21.875Z,19.10
2022-12-01T00:06:55.093Z,18.90
2022-12-01T00:07:28.481Z,18.10
2022-12-01T00:08:02.418Z,19.70
2022-12-01T00:08:35.961Z,18.00
2022-12-01T00:09:28.365Z,19.80
2022-12-01T00:10:20.236Z,18.80
2022-12-01T00:10:53.788Z,15.80
2022-12-01T00:11:27.051Z,19.10
2022-12-01T00:12:00.419Z,18.20
2022-12-01T00:12:33.780Z,19.40
2022-12-01T00:13:07.077Z,20.70
2022-12-01T00:13:40.455Z,17.40
2022-12-01T00:14:13.836Z,20.30
2022-12-01T00:14:54.990Z,17.80
2022-12-01T00:15:30.986Z,19.70
2022-12-01T00:16:16.897Z,19.90
2022-12-01T00:16:50.522Z,17.30
2022-12-01T00:17:23.848Z,20.20
2022-12-01T00:17:58.737Z,19.80
2022-12-01T00:18:32.005Z,20.70
2022-12-01T00:19:05.711Z,17.90
2022-12-01T00:19:39.196Z,21.10
2022-12-01T00:20:12.991Z,19.70
2022-12-01T00:20:49.216Z,21.70
2022-12-01T00:21:24.187Z,19.80
2022-12-01T00:21:57.561Z,20.40
2022-12-01T00:22:30.936Z,21.60
2022-12-01T00:23:04.447Z,20.60
2022-12-01T00:23:37.831Z,19.10
2022-12-01T00:24:13.545Z,20.70
2022-12-01T00:24:47.205Z,20.10
2022-12-01T00:25:21.266Z,21.00
2022-12-01T00:25:54.619Z,21.70
2022-12-01T00:26:28.079Z,18.30
2022-12-01T00:27:01.415Z,18.50
2022-12-01T00:27:37.087Z,21.90
2022-12-01T00:28:10.524Z,23.20
2022-12-01T00:28:44.177Z,21.30
2022-12-01T00:29:17.428Z,22.20
2022-12-01T00:29:50.837Z,21.40
2022-12-01T00:30:24.244Z,19.20
2022-12-01T00:30:57.830Z,18.50
2022-12-01T00:31:31.354Z,22.10
2022-12-01T00:32:05.090Z,20.50
2022-12-01T00:32:38.871Z,20.20
2022-12-01T00:33:12.108Z,21.40
2022-12-01T00:33:45.376Z,21.40
2022-12-01T00:34:23.728Z,24.00
2022-12-01T00:34:57.019Z,19.60
2022-12-01T00:35:30.341Z,20.30
2022-12-01T00:36:04.614Z,21.40
2022-12-01T00:36:38.833Z,20.90
2022-12-01T00:37:12.043Z,22.00
2022-12-01T00:37:45.779Z,20.90
2022-12-01T00:38:19.067Z,21.40
2022-12-01T00:38:56.423Z,20.50
2022-12-01T00:39:29.838Z,21.80
2022-12-01T00:40:04.204Z,23.40
2022-12-01T00:40:37.541Z,20.90
2022-12-01T00:41:11.041Z,20.20
2022-12-01T00:41:44.445Z,19.80
2022-12-01T00:42:20.935Z,21.50
2022-12-01T00:42:54.576Z,22.00
2022-12-01T00:43:27.916Z,21.50
2022-12-01T00:44:01.223Z,19.30
2022-12-01T00:44:34.496Z,22.50
2022-12-01T00:45:08.467Z,21.40
2022-12-01T00:45:43.229Z,20.50
2022-12-01T00:46:17.117Z,20.90
2022-12-01T00:46:50.478Z,21.40
2022-12-01T00:47:24.402Z,20.90
2022-12-01T00:47:57.687Z,20.20
2022-12-01T00:48:31.436Z,20.30
2022-12-01T00:49:06.277Z,21.10
2022-12-01T00:49:39.888Z,20.90
2022-12-01T00:50:13.219Z,23.00
2022-12-01T00:50:46.556Z,20.90
2022-12-01T00:51:20.031Z,20.40
2022-12-01T00:51:53.524Z,19.00
2022-12-01T00:52:26.826Z,20.60
2022-12-01T00:53:00.073Z,21.20
2022-12-01T00:53:33.495Z,19.60
2022-12-01T00:54:07.167Z,21.30
2022-12-01T00:54:41.017Z,21.60
2022-12-01T00:55:16.616Z,20.70
2022-12-01T00:55:50.076Z,19.00
2022-12-01T00:56:23.496Z,18.80
2022-12-01T00:56:56.766Z,21.30
2022-12-01T00:57:29.987Z,21.30
2022-12-01T00:58:03.609Z,21.30
2022-12-01T00:58:36.810Z,20.30
2022-12-01T00:59:10.188Z,21.40
2022-12-01T00:59:43.461Z,21.30
2022-12-01T01:00:17.385Z,23.30
2022-12-01T01:01:00.876Z,19.20
2022-12-01T01:01:34.936Z,20.20
2022-12-01T01:02:09.207Z,18.80
2022-12-01T01:02:42.555Z,21.10
2022-12-01T01:03:15.951Z,20.50
2022-12-01T01:03:49.307Z,20.20
2022-12-01T01:04:22.867Z,20.20
2022-12-01T01:04:56.179Z,19.20
2022-12-01T01:05:29.533Z,20.70
2022-12-01T01:06:13.160Z,18.60
2022-12-01T01:06:46.755Z,19.10
2022-12-01T01:07:20.633Z,19.70
2022-12-01T01:07:54.024Z,20.80
2022-12-01T01:08:27.310Z,21.50
2022-12-01T01:09:00.591Z,20.10
2022-12-01T01:09:33.916Z,20.00
2022-12-01T01:10:07.987Z,19.60
2022-12-01T01:10:44.066Z,21.80
2022-12-01T01:11:17.322Z,18.70
2022-12-01T01:11:50.691Z,20.50
2022-12-01T01:12:23.853Z,19.90
2022-12-01T01:12:57.046Z,20.20
2022-12-01T01:13:30.331Z,19.80
2022-12-01T01:14:04.451Z,19.60
2022-12-01T01:14:37.636Z,20.80
2022-12-01T01:15:11.050Z,20.20
2022-12-01T01:15:44.475Z,19.70
2022-12-01T01:16:21.089Z,19.90
2022-12-01T01:16:56.490Z,20.30
2022-12-01T01:17:29.857Z,18.80
2022-12-01T01:18:03.807Z,22.00
2022-12-01T01:18:37.082Z,19.70
2022-12-01T01:19:10.851Z,19.90
2022-12-01T01:19:44.171Z,23.00
2022-12-01T01:20:18.010Z,21.50
2022-12-01T01:21:04.562Z,19.10
2022-12-01T01:21:39.414Z,17.70
2022-12-01T01:22:13.043Z,20.50
2022-12-01T01:22:46.424Z,19.80
2022-12-01T01:23:19.752Z,19.60
2022-12-01T01:23:54.826Z,20.40
2022-12-01T01:24:28.150Z,20.10
2022-12-01T01:25:01.412Z,21.10
2022-12-01T01:25:34.925Z,20.90
2022-12-01T01:26:17.110Z,19.80
2022-12-01T01:26:50.967Z,19.60
2022-12-01T01:27:24.399Z,23.50
2022-12-01T01:27:57.741Z,20.80
2022-12-01T01:28:32.341Z,21.30
2022-12-01T01:29:08.026Z,19.40
2022-12-01T01:29:42.748Z,18.90
2022-12-01T01:30:16.248Z,21.10
2022-12-01T01:30:49.738Z,20.60
2022-12-01T01:31:25.167Z,20.90
2022-12-01T01:31:58.581Z,20.10
2022-12-01T01:32:31.857Z,19.40
2022-12-01T01:33:05.430Z,21.60
2022-12-01T01:33:38.861Z,20.90
2022-12-01T01:34:12.215Z,21.40
2022-12-01T01:34:45.906Z,21.60
2022-12-01T01:35:20.935Z,25.20
2022-12-01T01:35:58.452Z,21.80
2022-12-01T01:36:32.151Z,19.90
2022-12-01T01:37:05.584Z,21.60
2022-12-01T01:37:39.175Z,19.30
2022-12-01T01:38:12.566Z,23.40
2022-12-01T01:38:46.449Z,21.40
2022-12-01T01:39:19.722Z,20.10
2022-12-01T01:39:53.075Z,21.70
2022-12-01T01:40:26.961Z,20.20
2022-12-01T01:41:00.845Z,21.60
2022-12-01T01:41:34.286Z,21.90
2022-12-01T01:42:12.836Z,21.90
2022-12-01T01:42:46.578Z,20.30
2022-12-01T01:43:39.314Z,23.00
2022-12-01T01:44:58.834Z,20.70
2022-12-01T01:45:32.149Z,19.30
2022-12-01T01:46:06.755Z,20.70
2022-12-01T01:46:40.226Z,21.70
2022-12-01T01:47:14.342Z,22.20
2022-12-01T01:47:52.176Z,22.50
2022-12-01T01:48:25.477Z,21.80
2022-12-01T01:49:02.655Z,23.40
2022-12-01T01:49:36.069Z,21.40
2022-12-01T01:50:12.936Z,23.20
2022-12-01T01:50:46.151Z,23.20
2022-12-01T01:51:27.320Z,23.50
2022-12-01T01:52:38.619Z,20.90
2022-12-01T01:53:15.096Z,23.10
2022-12-01T01:53:53.169Z,25.70
2022-12-01T01:54:35.541Z,22.40
2022-12-01T01:55:09.620Z,24.50
2022-12-01T01:55:43.616Z,24.50
2022-12-01T01:56:16.816Z,22.70
2022-12-01T01:56:52.769Z,24.30
2022-12-01T01:57:30.928Z,23.80
2022-12-01T01:58:10.542Z,23.10
2022-12-01T01:58:44.917Z,25.10
2022-12-01T01:59:23.158Z,22.80
2022-12-01T02:00:18.358Z,23.50
2022-12-01T02:00:51.748Z,22.10
2022-12-01T02:01:25.189Z,22.60
2022-12-01T02:02:16.737Z,21.70
2022-12-01T02:02:51.007Z,22.00
2022-12-01T02:03:26.457Z,23.70
2022-12-01T02:04:00.223Z,23.50
2022-12-01T02:04:36.725Z,25.80
2022-12-01T02:05:19.536Z,24.90
2022-12-01T02:05:53.120Z,23.40
2022-12-01T02:06:26.520Z,24.10
2022-12-01T02:07:00.106Z,23.50
2022-12-01T02:07:33.744Z,26.30
2022-12-01T02:08:12.518Z,25.90
2022-12-01T02:08:45.767Z,24.90
2022-12-01T02:09:19.144Z,24.90
2022-12-01T02:09:53.988Z,25.00
2022-12-01T02:10:47.171Z,24.20
2022-12-01T02:11:31.853Z,24.30
2022-12-01T02:12:17.006Z,24.60
2022-12-01T02:13:11.540Z,25.80
2022-12-01T02:14:40.709Z,24.10
2022-12-01T02:15:22.419Z,20.40
2022-12-01T02:15:55.586Z,26.10
2022-12-01T02:16:50.230Z,23.90
2022-12-01T02:17:30.641Z,24.00
2022-12-01T02:18:15.821Z,22.90
2022-12-01T02:19:26.345Z,23.30
2022-12-01T02:20:05.578Z,23.20
2022-12-01T02:21:13.961Z,24.80
2022-12-01T02:22:02.257Z,22.50
2022-12-01T02:23:16.772Z,24.00
2022-12-01T02:23:55.728Z,25.10
2022-12-01T02:25:07.777Z,22.20
2022-12-01T02:26:17.756Z,21.50
2022-12-01T02:27:07.912Z,21.00
2022-12-01T02:28:08.596Z,24.10
2022-12-01T02:28:44.707Z,23.20
2022-12-01T02:29:56.073Z,24.80
2022-12-01T02:30:59.958Z,23.30
2022-12-01T02:31:59.753Z,22.20
2022-12-01T02:32:46.885Z,24.80
2022-12-01T02:33:42.690Z,24.20
2022-12-01T02:34:34.946Z,27.80
2022-12-01T02:35:22.942Z,27.50
2022-12-01T02:36:25.500Z,22.80
2022-12-01T02:37:06.715Z,21.70
2022-12-01T02:37:46.294Z,26.30
2022-12-01T02:38:35.933Z,24.80
2022-12-01T02:39:17.395Z,26.20
2022-12-01T02:40:25.699Z,28.20
2022-12-01T02:41:20.656Z,24.00
2022-12-01T02:42:09.870Z,26.10
2022-12-01T02:43:02.495Z,27.80
2022-12-01T02:43:45.793Z,26.30
2022-12-01T02:44:24.020Z,27.00
2022-12-01T02:44:58.938Z,25.00
2022-12-01T02:45:40.359Z,30.00
2022-12-01T02:46:24.665Z,27.20
2022-12-01T02:47:03.338Z,28.50
2022-12-01T02:47:40.311Z,26.70
2022-12-01T02:48:22.984Z,26.80
2022-12-01T02:49:00.209Z,28.40
2022-12-01T02:51:30.380Z,26.80
2022-12-01T02:52:06.467Z,26.20
2022-12-01T02:52:41.770Z,27.40
2022-12-01T02:53:19.070Z,27.30
2022-12-01T02:53:53.581Z,25.60
2022-12-01T02:54:31.505Z,27.50
2022-12-01T02:55:05.168Z,25.80
2022-12-01T02:55:47.794Z,27.80
2022-12-01T02:56:23.680Z,28.10
2022-12-01T02:56:59.225Z,28.00
2022-12-01T02:57:32.550Z,27.20
2022-12-01T02:58:15.447Z,29.00
2022-12-01T02:58:48.841Z,28.50
2022-12-01T02:59:22.155Z,28.10
2022-12-01T02:59:56.096Z,27.30
2022-12-01T03:00:31.224Z,29.70
2022-12-01T03:01:18.562Z,27.70
2022-12-01T03:02:24.844Z,28.60
2022-12-01T03:03:24.836Z,23.20
2022-12-01T03:04:24.421Z,27.40
2022-12-01T03:05:09.726Z,27.90
2022-12-01T03:06:14.088Z,28.70
2022-12-01T03:07:06.075Z,26.30
2022-12-01T03:07:51.661Z,26.90
2022-12-01T03:08:46.259Z,28.60
2022-12-01T03:09:41.691Z,26.70
2022-12-01T03:10:47.021Z,27.10
2022-12-01T03:11:28.191Z,28.20
2022-12-01T03:13:02.471Z,28.20
2022-12-01T03:13:55.399Z,27.90
2022-12-01T03:14:51.690Z,28.30
2022-12-01T03:15:42.407Z,27.20
2022-12-01T03:16:21.278Z,27.60
2022-12-01T03:16:54.905Z,27.80
2022-12-01T03:17:39.459Z,30.10
2022-12-01T03:18:34.439Z,28.30
2022-12-01T03:19:14.686Z,28.20
2022-12-01T03:19:56.391Z,27.90
2022-12-01T03:20:47.593Z,31.80
2022-12-01T03:22:16.447Z,26.80
2022-12-01T03:22:59.446Z,27.30
2022-12-01T03:23:37.947Z,27.30
2022-12-01T03:24:18.040Z,29.10
2022-12-01T03:24:56.334Z,27.20
2022-12-01T03:25:31.750Z,31.10
2022-12-01T03:26:07.830Z,30.00
2022-12-01T03:26:43.293Z,30.30
2022-12-01T03:27:22.487Z,29.60
2022-12-01T03:28:25.618Z,31.00
2022-12-01T03:28:56.832Z,27.20
2022-12-01T03:29:40.179Z,30.40
2022-12-01T03:30:14.786Z,32.00
2022-12-01T03:30:50.995Z,30.70
2022-12-01T03:31:36.080Z,29.90
2022-12-01T03:32:18.479Z,29.20
2022-12-01T03:32:58.663Z,29.20
2022-12-01T03:33:48.030Z,30.70
2022-12-01T03:34:50.059Z,30.90
2022-12-01T03:35:30.305Z,28.30
2022-12-01T03:36:10.223Z,30.40
2022-12-01T03:36:48.157Z,28.00
2022-12-01T03:37:31.660Z,27.10
2022-12-01T03:38:36.483Z,30.00
2022-12-01T03:39:16.348Z,26.00
2022-12-01T03:39:59.745Z,29.30
2022-12-01T03:40:37.351Z,28.80
2022-12-01T03:41:16.585Z,30.30
2022-12-01T03:42:19.970Z,28.60
2022-12-01T03:43:00.599Z,26.00
2022-12-01T03:43:38.570Z,27.90
2022-12-01T03:44:21.471Z,30.40
2022-12-01T03:44:58.940Z,29.70
2022-12-01T03:45:59.370Z,29.60
2022-12-01T03:47:13.661Z,28.40
2022-12-01T03:47:47.132Z,23.90
2022-12-01T03:48:21.667Z,30.90
2022-12-01T03:48:55.351Z,28.90
2022-12-01T03:49:29.245Z,32.10
2022-12-01T03:50:04.705Z,29.90
2022-12-01T03:51:07.081Z,31.80
2022-12-01T03:51:49.930Z,29.20
2022-12-01T03:52:42.292Z,29.30
2022-12-01T03:53:23.335Z,30.70
2022-12-01T03:54:01.884Z,29.70
2022-12-01T03:54:37.715Z,31.40
2022-12-01T03:55:19.836Z,32.20
2022-12-01T03:56:01.637Z,32.90
2022-12-01T03:56:44.015Z,30.70
2022-12-01T03:57:38.661Z,30.80
2022-12-01T03:58:17.342Z,32.50
2022-12-01T03:58:56.017Z,29.40
2022-12-01T03:59:30.997Z,30.80
2022-12-01T04:00:07.465Z,27.30
2022-12-01T04:00:50.106Z,27.50
2022-12-01T04:01:23.792Z,31.80
2022-12-01T04:01:58.202Z,33.70
2022-12-01T04:02:32.144Z,29.20
2022-12-01T04:03:06.710Z,31.30
2022-12-01T04:03:40.235Z,30.70
2022-12-01T04:04:15.046Z,31.00
2022-12-01T04:04:48.239Z,31.30
2022-12-01T04:05:25.286Z,30.40
2022-12-01T04:05:59.765Z,32.70
2022-12-01T04:06:33.769Z,32.60
2022-12-01T04:07:07.386Z,32.60
2022-12-01T04:07:41.184Z,32.80
2022-12-01T04:08:14.552Z,30.70
2022-12-01T04:08:47.731Z,32.70
2022-12-01T04:09:21.100Z,32.00
2022-12-01T04:09:54.341Z,32.70
2022-12-01T04:10:27.718Z,32.50
2022-12-01T04:11:00.946Z,31.50
2022-12-01T04:11:52.496Z,32.70
2022-12-01T04:12:33.161Z,28.70
2022-12-01T04:13:12.126Z,29.00
2022-12-01T04:13:45.468Z,29.90
2022-12-01T04:14:18.823Z,31.50
2022-12-01T04:14:52.002Z,30.80
2022-12-01T04:15:26.127Z,29.50
2022-12-01T04:16:01.751Z,33.00
2022-12-01T04:16:35.236Z,33.10
2022-12-01T04:17:08.692Z,33.90
2022-12-01T04:17:46.024Z,32.70
2022-12-01T04:18:19.929Z,33.80
2022-12-01T04:18:53.172Z,33.80
2022-12-01T04:19:26.529Z,30.90
2022-12-01T04:20:01.118Z,32.00
2022-12-01T04:20:34.504Z,32.90
2022-12-01T04:21:07.960Z,33.80
2022-12-01T04:21:41.390Z,30.00
2022-12-01T04:22:14.663Z,31.60
2022-12-01T04:22:48.108Z,32.50
2022-12-01T04:23:40.258Z,34.20
2022-12-01T04:24:14.092Z,31.40
2022-12-01T04:24:47.440Z,33.40
2022-12-01T04:25:20.694Z,28.90
2022-12-01T04:25:59.172Z,30.40
2022-12-01T04:26:35.312Z,33.20
2022-12-01T04:27:11.834Z,31.30
2022-12-01T04:27:45.113Z,33.50
2022-12-01T04:28:18.515Z,31.10
2022-12-01T04:28:51.907Z,34.40
2022-12-01T04:29:25.152Z,33.70
2022-12-01T04:29:58.655Z,34.10
2022-12-01T04:30:32.650Z,33.00
2022-12-01T04:31:06.075Z,33.00
2022-12-01T04:31:39.880Z,34.20
2022-12-01T04:32:13.743Z,33.80
2022-12-01T04:32:47.142Z,33.60
2022-12-01T04:33:21.279Z,34.20
2022-12-01T04:33:56.140Z,34.80
2022-12-01T04:34:29.491Z,33.20
2022-12-01T04:35:02.725Z,33.80
2022-12-01T04:35:35.995Z,33.60
2022-12-01T04:36:09.680Z,33.30
2022-12-01T04:36:42.990Z,32.50
2022-12-01T04:37:16.970Z,31.20
2022-12-01T04:37:50.193Z,31.30
2022-12-01T04:38:27.500Z,31.40
2022-12-01T04:39:04.183Z,32.80
2022-12-01T04:39:37.578Z,35.90
2022-12-01T04:40:11.601Z,34.70
2022-12-01T04:40:44.915Z,33.70
2022-12-01T04:41:18.286Z,33.00
2022-12-01T04:41:51.540Z,31.70
2022-12-01T04:42:24.858Z,34.20
2022-12-01T04:42:58.215Z,36.80
2022-12-01T04:43:31.523Z,33.20
2022-12-01T04:44:05.395Z,32.50
2022-12-01T04:44:38.851Z,34.40
2022-12-01T04:45:12.067Z,32.30
2022-12-01T04:45:45.336Z,34.50
2022-12-01T04:46:18.928Z,35.10
2022-12-01T04:46:53.277Z,32.70
2022-12-01T04:47:26.585Z,37.60
2022-12-01T04:47:59.874Z,34.40
2022-12-01T04:48:36.103Z,37.80
2022-12-01T04:49:09.729Z,35.50
2022-12-01T04:49:42.946Z,36.10
2022-12-01T04:50:16.228Z,35.90
2022-12-01T04:50:50.077Z,36.20
2022-12-01T04:51:23.534Z,33.30
2022-12-01T04:51:56.765Z,34.50
2022-12-01T04:52:35.025Z,32.40
2022-12-01T04:53:09.909Z,34.70
2022-12-01T04:53:43.387Z,33.40
2022-12-01T04:54:16.869Z,34.20
2022-12-01T04:54:50.137Z,36.20
2022-12-01T04:55:23.615Z,33.90
2022-12-01T04:55:56.806Z,34.10
2022-12-01T04:56:30.275Z,33.90
2022-12-01T04:57:03.897Z,34.30
2022-12-01T04:57:37.128Z,35.20
2022-12-01T04:58:10.496Z,36.20
2022-12-01T04:58:44.642Z,34.20
2022-12-01T04:59:18.268Z,32.80
2022-12-01T04:59:51.952Z,32.10
2022-12-01T05:00:25.952Z,37.60
2022-12-01T05:01:08.291Z,36.70
2022-12-01T05:01:41.966Z,34.10
2022-12-01T05:02:15.324Z,33.30
2022-12-01T05:02:48.633Z,36.90
2022-12-01T05:03:22.016Z,33.20
2022-12-01T05:03:55.325Z,33.80
2022-12-01T05:04:28.588Z,36.90
2022-12-01T05:05:01.824Z,37.00
2022-12-01T05:05:35.143Z,35.80
2022-12-01T05:06:11.932Z,36.30
2022-12-01T05:06:45.432Z,34.50
2022-12-01T05:07:18.721Z,35.40
2022-12-01T05:07:52.092Z,34.90
2022-12-01T05:08:25.502Z,33.50
2022-12-01T05:09:01.353Z,32.30
2022-12-01T05:09:34.727Z,36.20
2022-12-01T05:10:08.789Z,32.90
2022-12-01T05:10:42.142Z,35.90
2022-12-01T05:11:16.666Z,35.10
2022-12-01T05:11:50.128Z,33.60
2022-12-01T05:12:23.390Z,35.00
2022-12-01T05:12:58.415Z,30.90
2022-12-01T05:13:31.690Z,32.90
2022-12-01T05:14:06.285Z,34.70
2022-12-01T05:14:39.685Z,37.80
2022-12-01T05:15:13.462Z,33.80
2022-12-01T05:15:46.709Z,33.50
2022-12-01T05:16:25.730Z,33.00
2022-12-01T05:17:00.655Z,36.90
2022-12-01T05:17:36.933Z,33.90
2022-12-01T05:18:10.561Z,38.80
2022-12-01T05:18:44.122Z,33.00
2022-12-01T05:19:36.007Z,34.30
2022-12-01T05:20:33.637Z,33.40
2022-12-01T05:21:09.176Z,32.30
2022-12-01T05:21:44.256Z,32.90
2022-12-01T05:22:27.012Z,34.50
2022-12-01T05:23:15.243Z,34.10
2022-12-01T05:23:50.326Z,36.00
2022-12-01T05:24:23.549Z,34.30
2022-12-01T05:24:56.893Z,34.50
2022-12-01T05:25:30.681Z,32.70
2022-12-01T05:26:07.296Z,34.30
2022-12-01T05:26:42.391Z,34.50
2022-12-01T05:27:15.749Z,34.90
2022-12-01T05:27:48.908Z,37.20
2022-12-01T05:28:24.425Z,38.60
2022-12-01T05:28:57.742Z,36.80
2022-12-01T05:29:33.272Z,35.90
2022-12-01T05:30:07.403Z,35.50
2022-12-01T05:30:41.166Z,33.00
2022-12-01T05:31:15.639Z,36.10
2022-12-01T05:31:49.038Z,34.20
2022-12-01T05:32:22.398Z,34.30
2022-12-01T05:32:56.121Z,34.50
2022-12-01T05:33:30.266Z,36.60
2022-12-01T05:34:03.865Z,39.50
2022-12-01T05:34:37.142Z,32.50
2022-12-01T05:35:10.287Z,33.80
2022-12-01T05:35:43.619Z,33.70
2022-12-01T05:36:16.940Z,36.70
2022-12-01T05:36:50.290Z,38.20
2022-12-01T05:37:23.658Z,35.60
2022-12-01T05:37:57.033Z,35.40
2022-12-01T05:38:30.425Z,33.60
2022-12-01T05:39:05.047Z,35.20
2022-12-01T05:39:40.340Z,36.10
2022-12-01T05:40:13.661Z,34.20
2022-12-01T05:40:54.619Z,33.70
2022-12-01T05:41:27.904Z,34.30
2022-12-01T05:42:01.376Z,31.70
2022-12-01T05:42:34.644Z,36.40
2022-12-01T05:43:08.721Z,35.00
2022-12-01T05:43:42.410Z,35.00
2022-12-01T05:44:15.740Z,35.10
2022-12-01T05:44:49.069Z,31.60
2022-12-01T05:45:22.677Z,34.10
2022-12-01T05:45:56.806Z,35.60
2022-12-01T05:46:30.131Z,35.10
2022-12-01T05:47:03.635Z,32.00
2022-12-01T05:47:36.976Z,35.80
2022-12-01T05:48:10.314Z,34.30
2022-12-01T05:48:43.673Z,35.30
2022-12-01T05:49:17.655Z,37.70
2022-12-01T05:49:54.734Z,33.40
2022-12-01T05:50:30.438Z,32.90
2022-12-01T05:51:12.260Z,36.70
2022-12-01T05:51:45.475Z,33.40
2022-12-01T05:52:18.840Z,35.40
2022-12-01T05:52:52.269Z,34.10
2022-12-01T05:53:25.502Z,37.20
2022-12-01T05:54:02.644Z,34.30
2022-12-01T05:54:35.988Z,35.40
2022-12-01T05:55:09.778Z,36.10
2022-12-01T05:55:43.009Z,32.70
2022-12-01T05:56:16.270Z,35.90
2022-12-01T05:56:49.579Z,36.60
2022-12-01T05:57:22.842Z,38.00
2022-12-01T05:57:56.925Z,33.50
2022-12-01T05:58:31.051Z,33.80
2022-12-01T05:59:04.395Z,34.60
2022-12-01T05:59:37.577Z,34.80
2022-12-01T06:00:12.164Z,34.90
2022-12-01T06:00:46.320Z,33.90
2022-12-01T06:01:20.106Z,36.30
2022-12-01T06:01:53.340Z,34.80
2022-12-01T06:02:27.116Z,35.50
2022-12-01T06:03:00.806Z,35.20
2022-12-01T06:03:34.267Z,34.60
2022-12-01T06:04:09.447Z,37.10
2022-12-01T06:04:43.295Z,35.00
2022-12-01T06:05:17.005Z,33.30
2022-12-01T06:05:51.285Z,33.90
2022-12-01T06:06:24.725Z,38.20
2022-12-01T06:06:57.991Z,35.60
2022-12-01T06:07:32.314Z,35.00
2022-12-01T06:08:17.195Z,34.60
2022-12-01T06:08:58.163Z,32.50
2022-12-01T06:09:35.180Z,30.40
2022-12-01T06:10:10.595Z,33.90
2022-12-01T06:10:44.936Z,33.90
2022-12-01T06:11:18.146Z,34.30
2022-12-01T06:11:52.738Z,34.60
2022-12-01T06:12:26.051Z,34.30
2022-12-01T06:12:59.403Z,32.00
2022-12-01T06:13:32.666Z,33.20
2022-12-01T06:14:06.254Z,32.80
2022-12-01T06:14:40.969Z,34.90
2022-12-01T06:15:14.542Z,34.00
2022-12-01T06:16:00.264Z,33.90
2022-12-01T06:16:33.824Z,31.80
2022-12-01T06:17:07.307Z,32.90
2022-12-01T06:17:44.248Z,37.80
2022-12-01T06:18:17.581Z,33.90
2022-12-01T06:18:50.904Z,35.10
2022-12-01T06:19:24.575Z,34.20
2022-12-01T06:19:57.965Z,32.10
2022-12-01T06:20:31.212Z,35.20
2022-12-01T06:21:06.832Z,34.60
2022-12-01T06:21:40.109Z,35.90
2022-12-01T06:22:13.646Z,34.50
2022-12-01T06:22:48.534Z,35.60
2022-12-01T06:23:24.286Z,35.10
2022-12-01T06:24:00.898Z,36.10
2022-12-01T06:24:34.220Z,34.70
2022-12-01T06:25:08.644Z,35.90
2022-12-01T06:25:41.952Z,36.00
2022-12-01T06:26:15.205Z,32.20
2022-12-01T06:26:48.497Z,34.00
2022-12-01T06:27:21.796Z,37.40
2022-12-01T06:27:59.040Z,34.90
2022-12-01T06:28:32.442Z,32.90
2022-12-01T06:29:05.872Z,34.50
2022-12-01T06:29:47.852Z,35.40
2022-12-01T06:30:21.233Z,34.90
2022-12-01T06:30:59.317Z,32.60
2022-12-01T06:31:36.091Z,34.10
2022-12-01T06:32:10.491Z,33.50
2022-12-01T06:32:43.956Z,34.60
2022-12-01T06:33:17.240Z,33.10
2022-12-01T06:33:50.671Z,32.90
2022-12-01T06:34:24.076Z,36.70
2022-12-01T06:34:57.369Z,39.10
2022-12-01T06:35:30.714Z,35.80
2022-12-01T06:36:06.994Z,35.70
2022-12-01T06:36:40.365Z,37.50
2022-12-01T06:37:15.792Z,33.30
2022-12-01T06:37:49.161Z,32.90
2022-12-01T06:38:22.412Z,35.00
2022-12-01T06:38:55.712Z,32.70
2022-12-01T06:39:28.948Z,32.10
2022-12-01T06:40:02.273Z,33.80
2022-12-01T06:40:35.562Z,35.40
2022-12-01T06:41:08.950Z,35.00
2022-12-01T06:41:42.946Z,32.50
2022-12-01T06:42:16.240Z,36.20
2022-12-01T06:42:49.638Z,34.00
2022-12-01T06:43:25.760Z,32.80
2022-12-01T06:44:01.302Z,35.30
2022-12-01T06:44:34.600Z,32.40
2022-12-01T06:45:11.493Z,34.40
2022-12-01T06:45:45.150Z,35.80
2022-12-01T06:46:18.690Z,34.90
2022-12-01T06:46:53.092Z,35.00
2022-12-01T06:47:27.288Z,35.10
2022-12-01T06:48:00.593Z,34.30
2022-12-01T06:48:36.745Z,34.60
2022-12-01T06:49:13.933Z,35.10
2022-12-01T06:49:47.697Z,35.10
2022-12-01T06:50:24.901Z,35.70
2022-12-01T06:50:59.656Z,34.60
2022-12-01T06:51:34.777Z,34.90
2022-12-01T06:52:08.216Z,34.10
2022-12-01T06:52:41.592Z,35.40
2022-12-01T06:53:18.028Z,33.90
2022-12-01T06:53:55.228Z,35.60
2022-12-01T06:54:28.610Z,35.50
2022-12-01T06:55:03.993Z,34.10
2022-12-01T06:55:39.030Z,35.20
2022-12-01T06:56:12.661Z,37.20
2022-12-01T06:56:46.249Z,37.10
2022-12-01T06:57:20.031Z,35.20
2022-12-01T06:57:53.966Z,32.00
2022-12-01T06:58:27.808Z,35.00
2022-12-01T06:59:01.290Z,36.10
2022-12-01T06:59:36.102Z,35.20
2022-12-01T07:00:10.392Z,35.90
2022-12-01T07:00:48.975Z,35.00
2022-12-01T07:01:27.435Z,33.80
2022-12-01T07:02:01.110Z,34.30
2022-12-01T07:02:34.817Z,33.00
2022-12-01T07:03:11.406Z,32.60
2022-12-01T07:03:57.234Z,34.40
2022-12-01T07:04:31.260Z,34.80
2022-12-01T07:05:05.034Z,35.20
2022-12-01T07:05:38.349Z,35.10
2022-12-01T07:06:11.703Z,33.40
2022-12-01T07:06:45.052Z,34.30
2022-12-01T07:07:18.265Z,33.20
2022-12-01T07:07:56.359Z,37.30
2022-12-01T07:08:33.613Z,33.20
2022-12-01T07:09:06.953Z,34.40
2022-12-01T07:09:42.429Z,35.70
2022-12-01T07:10:15.752Z,33.80
2022-12-01T07:11:03.830Z,34.30
2022-12-01T07:11:39.701Z,34.00
2022-12-01T07:12:13.828Z,36.00
2022-12-01T07:12:47.103Z,35.50
2022-12-01T07:13:20.505Z,32.20
2022-12-01T07:13:58.854Z,35.70
2022-12-01T07:14:32.271Z,33.30
2022-12-01T07:15:08.111Z,34.30
2022-12-01T07:15:41.370Z,36.20
2022-12-01T07:16:16.216Z,33.30
2022-12-01T07:16:49.680Z,36.00
2022-12-01T07:17:23.252Z,34.60
2022-12-01T07:17:56.677Z,34.10
2022-12-01T07:18:30.472Z,34.50
2022-12-01T07:19:03.982Z,37.20
2022-12-01T07:19:37.251Z,36.30
2022-12-01T07:20:12.317Z,34.50
2022-12-01T07:20:45.494Z,31.10
2022-12-01T07:21:18.816Z,34.40
2022-12-01T07:21:55.116Z,32.00
2022-12-01T07:22:32.656Z,32.90
2022-12-01T07:23:08.816Z,36.30
2022-12-01T07:23:42.869Z,35.20
2022-12-01T07:24:16.827Z,34.20
2022-12-01T07:24:50.295Z,35.40
2022-12-01T07:25:24.191Z,35.80
2022-12-01T07:26:01.861Z,34.00
2022-12-01T07:26:37.418Z,33.90
2022-12-01T07:27:12.364Z,33.50
2022-12-01T07:27:45.801Z,33.30
2022-12-01T07:28:19.235Z,32.80
2022-12-01T07:28:53.218Z,34.60
2022-12-01T07:29:26.544Z,32.40
2022-12-01T07:29:59.860Z,35.90
2022-12-01T07:30:36.275Z,35.90
2022-12-01T07:31:15.691Z,32.60
2022-12-01T07:31:49.134Z,34.50
2022-12-01T07:32:22.598Z,35.10
2022-12-01T07:32:56.080Z,34.40
2022-12-01T07:33:29.464Z,33.00
2022-12-01T07:34:03.151Z,32.80
2022-12-01T07:34:36.450Z,34.40
2022-12-01T07:35:10.466Z,36.70
2022-12-01T07:35:46.612Z,36.00
2022-12-01T07:36:19.997Z,34.60
2022-12-01T07:36:53.310Z,33.00
2022-12-01T07:37:26.572Z,34.00
2022-12-01T07:37:59.845Z,32.60
2022-12-01T07:38:34.442Z,32.70
2022-12-01T07:39:09.019Z,35.00
2022-12-01T07:39:42.390Z,33.90
2022-12-01T07:40:18.234Z,35.00
2022-12-01T07:40:51.619Z,35.40
2022-12-01T07:41:25.229Z,34.50
2022-12-01T07:41:58.663Z,35.50
2022-12-01T07:42:32.051Z,37.10
2022-12-01T07:43:05.611Z,35.60
2022-12-01T07:43:39.238Z,33.90
2022-12-01T07:44:15.434Z,34.00
2022-12-01T07:44:48.751Z,31.30
2022-12-01T07:45:22.010Z,34.60
2022-12-01T07:45:55.314Z,34.40
2022-12-01T07:46:29.307Z,34.90
2022-12-01T07:47:02.716Z,32.90
2022-12-01T07:47:35.964Z,34.60
2022-12-01T07:48:09.285Z,30.80
2022-12-01T07:48:42.836Z,34.80
2022-12-01T07:49:16.360Z,34.40
2022-12-01T07:49:50.035Z,32.40
2022-12-01T07:50:23.524Z,32.20
2022-12-01T07:50:56.977Z,33.40
2022-12-01T07:51:31.616Z,32.60
2022-12-01T07:52:05.182Z,34.30
2022-12-01T07:52:38.582Z,33.40
2022-12-01T07:53:11.975Z,31.70
2022-12-01T07:53:49.477Z,31.60
2022-12-01T07:54:23.007Z,34.80
2022-12-01T07:54:56.355Z,32.10
2022-12-01T07:55:29.605Z,32.30
2022-12-01T07:56:08.408Z,34.00
2022-12-01T07:56:42.430Z,31.80
2022-12-01T07:57:15.851Z,32.60
2022-12-01T07:57:49.293Z,31.10
2022-12-01T07:58:22.608Z,35.30